Time;durP1;ratioP1;P1;durP2;ratioP2;P2;SDS_P1;SDS_P2;PMS_P1;PMS_P2;Temp;Humidity;BMP_temperature;BMP_pressure;BME280_temperature;BME280_humidity;BME280_pressure;Samples;Min_cycle;Max_cycle;Signal;HPM_P1;HPM_P2
2021/01/23 00:01:27;;;;;;;3.17;1.40;;;4.60;67.90;;;;;;2359673;53;20972;-74
2021/01/23 00:03:54;;;;;;;3.22;1.40;;;4.60;67.90;;;;;;2357357;54;20938;-74
2021/01/23 00:06:20;;;;;;;3.90;1.58;;;4.60;67.90;;;;;;2352090;53;21096;-74
2021/01/23 00:08:46;;;;;;;3.62;1.98;;;4.60;67.90;;;;;;2587931;52;21542;-74
2021/01/23 00:11:13;;;;;;;4.87;2.00;;;4.60;68.00;;;;;;2595155;52;21032;-73
2021/01/23 00:13:40;;;;;;;3.33;1.60;;;4.60;68.00;;;;;;2598687;52;20910;-73
2021/01/23 00:16:06;;;;;;;3.15;1.55;;;4.60;68.00;;;;;;2592326;52;21423;-73
2021/01/23 00:18:33;;;;;;;2.90;1.40;;;4.60;67.90;;;;;;2550725;53;20927;-73
2021/01/23 00:20:59;;;;;;;3.22;1.45;;;4.60;67.90;;;;;;2605814;52;21068;-74
2021/01/23 00:23:26;;;;;;;2.90;1.27;;;4.60;67.90;;;;;;2349658;53;21502;-74
2021/01/23 00:25:53;;;;;;;2.30;1.10;;;4.60;68.10;;;;;;2328483;54;20937;-74
2021/01/23 00:28:20;;;;;;;3.17;1.70;;;4.60;68.10;;;;;;2622227;52;21061;-73
2021/01/23 00:30:47;;;;;;;4.70;2.08;;;4.60;68.10;;;;;;2592010;52;21006;-74
2021/01/23 00:33:14;;;;;;;4.72;2.22;;;4.60;68.00;;;;;;2615056;52;21006;-74
2021/01/23 00:35:40;;;;;;;3.08;1.48;;;4.60;68.00;;;;;;2583895;52;21082;-75
2021/01/23 00:38:07;;;;;;;2.65;1.30;;;4.60;68.00;;;;;;2561717;53;20968;-75
2021/01/23 00:40:35;;;;;;;2.53;1.33;;;4.60;68.10;;;;;;2587457;52;20993;-75
2021/01/23 00:43:02;;;;;;;2.35;1.05;;;4.60;68.10;;;;;;2345513;53;20946;-76
2021/01/23 00:45:28;;;;;;;2.55;1.20;;;4.60;68.20;;;;;;2573438;52;20944;-75
2021/01/23 00:47:55;;;;;;;3.03;1.10;;;4.60;68.20;;;;;;2624309;52;20941;-75
2021/01/23 00:50:25;;;;;;;2.87;1.20;;;4.60;68.20;;;;;;2622614;52;20955;-76
2021/01/23 00:52:51;;;;;;;2.50;1.12;;;4.60;68.20;;;;;;2589956;52;20954;-77
2021/01/23 00:55:20;;;;;;;3.70;1.27;;;4.60;68.20;;;;;;2599721;52;21742;-76
2021/01/23 00:57:46;;;;;;;8.32;2.78;;;4.60;68.30;;;;;;2608919;52;21865;-76
2021/01/23 01:00:14;;;;;;;7.18;2.40;;;4.60;68.20;;;;;;2592111;52;20983;-77
2021/01/23 01:02:44;;;;;;;11.02;3.47;;;4.60;68.30;;;;;;2573625;52;20963;-76
2021/01/23 01:05:19;;;;;;;7.03;2.58;;;4.60;68.30;;;;;;2593913;52;21005;-77
2021/01/23 01:07:46;;;;;;;3.67;1.95;;;4.60;68.20;;;;;;2576614;53;21016;-75
2021/01/23 01:10:12;;;;;;;3.90;1.60;;;4.60;68.20;;;;;;2576695;53;21031;-75
2021/01/23 01:12:39;;;;;;;10.15;2.72;;;4.60;68.10;;;;;;2617058;52;20930;-74
2021/01/23 01:15:06;;;;;;;3.75;1.55;;;4.60;68.20;;;;;;2561775;53;21537;-76
2021/01/23 01:17:32;;;;;;;4.87;1.70;;;4.60;68.20;;;;;;2559750;53;21013;-74
2021/01/23 01:19:59;;;;;;;2.95;1.20;;;4.60;68.20;;;;;;2583783;53;20964;-75
2021/01/23 01:22:28;;;;;;;5.25;2.00;;;4.60;68.20;;;;;;2341694;54;21043;-76
2021/01/23 01:24:55;;;;;;;4.32;1.65;;;4.60;68.20;;;;;;2585131;53;20947;-76
2021/01/23 01:27:22;;;;;;;3.10;1.40;;;4.60;68.30;;;;;;2584822;53;21407;-76
2021/01/23 01:29:48;;;;;;;3.12;1.35;;;4.60;68.40;;;;;;2583153;53;21047;-75
2021/01/23 01:32:15;;;;;;;3.62;1.23;;;4.60;68.40;;;;;;2341320;54;21498;-74
2021/01/23 01:34:44;;;;;;;2.22;0.95;;;4.60;68.40;;;;;;2589140;53;20957;-74
2021/01/23 01:37:10;;;;;;;3.87;1.58;;;4.60;69.10;;;;;;2583333;53;20927;-74
2021/01/23 01:39:37;;;;;;;7.28;2.50;;;4.60;68.30;;;;;;2585635;53;21756;-74
2021/01/23 01:42:05;;;;;;;7.40;2.67;;;4.60;68.40;;;;;;2556103;53;21468;-75
2021/01/23 01:44:32;;;;;;;8.95;2.92;;;4.60;68.50;;;;;;2581888;53;20981;-75
2021/01/23 01:47:02;;;;;;;8.98;2.78;;;4.60;68.40;;;;;;2341738;53;21039;-75
2021/01/23 01:49:29;;;;;;;6.82;2.67;;;4.60;68.50;;;;;;2562523;52;20928;-75
2021/01/23 01:51:56;;;;;;;5.25;1.85;;;4.60;68.50;;;;;;2566322;53;21023;-76
2021/01/23 01:54:23;;;;;;;7.00;2.30;;;4.60;68.50;;;;;;2581247;52;20954;-75
2021/01/23 01:56:50;;;;;;;4.37;1.85;;;4.60;68.60;;;;;;2342526;53;20993;-75
2021/01/23 01:59:17;;;;;;;6.68;2.17;;;4.60;68.70;;;;;;2571751;52;21256;-74
2021/01/23 02:01:43;;;;;;;4.65;1.90;;;4.60;68.60;;;;;;2596055;52;21476;-75
2021/01/23 02:04:36;;;;;;;6.85;2.00;;;4.60;68.60;;;;;;2352700;54;21789;-75
2021/01/23 02:07:17;;;;;;;5.32;2.33;;;4.60;68.70;;;;;;2595779;52;21007;-77
2021/01/23 02:10:07;;;;;;;4.32;1.67;;;4.60;68.70;;;;;;2624313;52;21077;-76
2021/01/23 02:14:13;;;;;;;2.47;1.10;;;4.60;68.80;;;;;;2597354;52;20971;-75
2021/01/23 02:16:43;;;;;;;2.87;1.00;;;4.60;68.90;;;;;;2350338;53;21440;-76
2021/01/23 02:19:17;;;;;;;2.22;0.88;;;4.60;68.90;;;;;;2592445;52;21083;-75
2021/01/23 02:22:00;;;;;;;2.85;1.00;;;4.60;69.20;;;;;;2597259;52;21025;-76
2021/01/23 02:24:27;;;;;;;4.68;1.40;;;4.60;69.30;;;;;;2583271;52;20931;-75
2021/01/23 02:27:13;;;;;;;8.90;2.95;;;4.60;69.40;;;;;;2346297;53;21023;-75
2021/01/23 02:30:07;;;;;;;7.37;2.80;;;4.60;69.60;;;;;;2597236;52;20925;-76
2021/01/23 02:32:34;;;;;;;4.47;1.92;;;4.70;69.70;;;;;;2598800;52;20949;-76
2021/01/23 02:35:01;;;;;;;3.78;1.50;;;4.70;69.70;;;;;;2588026;52;20909;-76
2021/01/23 02:37:28;;;;;;;3.15;1.35;;;4.70;69.60;;;;;;2350884;53;20975;-75
2021/01/23 02:39:55;;;;;;;5.32;1.98;;;4.70;69.60;;;;;;2358130;54;21046;-75
2021/01/23 02:42:24;;;;;;;3.37;1.60;;;4.70;69.60;;;;;;2613262;52;20941;-75
2021/01/23 02:44:50;;;;;;;5.55;2.17;;;4.70;69.60;;;;;;2621447;52;20974;-76
2021/01/23 02:47:17;;;;;;;5.85;2.15;;;4.70;69.60;;;;;;2608728;52;20931;-76
2021/01/23 02:49:43;;;;;;;6.37;2.12;;;4.70;69.60;;;;;;2594072;52;20967;-74
2021/01/23 02:52:20;;;;;;;7.03;2.22;;;4.70;69.70;;;;;;2597145;52;21047;-74
2021/01/23 02:55:02;;;;;;;6.72;2.37;;;4.70;69.80;;;;;;2357286;53;21516;-75
2021/01/23 02:57:28;;;;;;;4.05;1.83;;;4.70;69.80;;;;;;2594847;52;21009;-75
2021/01/23 02:59:57;;;;;;;3.15;1.30;;;4.70;69.80;;;;;;2623267;52;21068;-77
2021/01/23 03:02:24;;;;;;;3.47;1.25;;;4.70;69.90;;;;;;2599204;52;20963;-75
2021/01/23 03:04:50;;;;;;;4.57;1.37;;;4.70;69.80;;;;;;2597391;52;20982;-76
2021/01/23 03:07:16;;;;;;;4.40;1.23;;;4.80;69.90;;;;;;2611422;52;20969;-76
2021/01/23 03:09:43;;;;;;;2.28;0.90;;;4.80;70.00;;;;;;2594549;52;20920;-75
2021/01/23 03:12:11;;;;;;;2.10;0.80;;;4.80;70.00;;;;;;2601554;52;20947;-75
2021/01/23 03:14:38;;;;;;;10.13;2.35;;;4.80;70.10;;;;;;2598878;52;20935;-74
2021/01/23 03:17:04;;;;;;;11.27;2.85;;;4.80;70.00;;;;;;2594109;52;21103;-75
2021/01/23 03:19:30;;;;;;;13.90;4.25;;;4.80;70.00;;;;;;2601856;52;21049;-77
2021/01/23 03:21:57;;;;;;;8.52;3.25;;;4.90;70.10;;;;;;2612543;52;21043;-74
2021/01/23 03:24:24;;;;;;;7.80;2.78;;;4.90;70.10;;;;;;2599803;52;20921;-76
2021/01/23 03:26:50;;;;;;;7.57;2.75;;;4.90;70.10;;;;;;2622565;52;21480;-75
2021/01/23 03:29:18;;;;;;;7.70;3.25;;;4.90;70.10;;;;;;2624570;52;21519;-76
2021/01/23 03:31:44;;;;;;;4.12;1.55;;;4.90;70.20;;;;;;2624999;52;20966;-75
2021/01/23 03:34:11;;;;;;;5.50;2.17;;;4.90;70.20;;;;;;2624070;52;21005;-77
2021/01/23 03:36:38;;;;;;;4.57;1.80;;;4.90;70.30;;;;;;2599049;52;20939;-75
2021/01/23 03:39:05;;;;;;;3.87;1.67;;;5.00;70.40;;;;;;2621200;52;20902;-76
2021/01/23 03:41:31;;;;;;;3.62;1.58;;;5.00;70.40;;;;;;2598306;52;20911;-74
2021/01/23 03:43:58;;;;;;;4.22;1.60;;;5.00;70.40;;;;;;2609185;52;21091;-77
2021/01/23 03:46:26;;;;;;;3.97;1.58;;;5.00;70.30;;;;;;2602428;52;21020;-76
2021/01/23 03:48:53;;;;;;;5.47;1.73;;;5.00;70.30;;;;;;2624729;52;20914;-77
2021/01/23 03:51:19;;;;;;;5.97;2.42;;;5.00;70.30;;;;;;2345738;54;21073;-75
2021/01/23 03:53:47;;;;;;;4.62;2.10;;;5.10;70.30;;;;;;2593099;52;21457;-76
2021/01/23 03:56:13;;;;;;;4.70;1.85;;;5.10;70.30;;;;;;2599776;52;20973;-75
2021/01/23 03:58:40;;;;;;;2.72;1.20;;;5.10;70.30;;;;;;2593276;52;21000;-78
2021/01/23 04:01:07;;;;;;;2.92;1.10;;;5.10;71.00;;;;;;2589611;52;20950;-75
2021/01/23 04:03:33;;;;;;;2.33;1.00;;;5.10;70.30;;;;;;2603653;52;20967;-75
2021/01/23 04:06:01;;;;;;;2.22;0.82;;;5.10;70.40;;;;;;2595330;52;20962;-77
2021/01/23 04:08:33;;;;;;;2.45;0.98;;;5.10;70.50;;;;;;2363280;54;20952;-76
2021/01/23 04:11:00;;;;;;;2.20;0.80;;;5.10;70.50;;;;;;2576484;52;20937;-79
2021/01/23 04:13:26;;;;;;;2.33;1.00;;;5.20;70.50;;;;;;2371293;54;21751;-77
2021/01/23 04:15:55;;;;;;;3.60;1.17;;;5.20;70.50;;;;;;2370894;54;20986;-75
2021/01/23 04:18:21;;;;;;;2.40;1.10;;;5.20;70.50;;;;;;2348161;54;20954;-76
2021/01/23 04:20:49;;;;;;;2.47;1.10;;;5.20;70.50;;;;;;2621308;52;20973;-76
2021/01/23 04:23:15;;;;;;;4.25;1.55;;;5.20;70.50;;;;;;2597947;52;20950;-76
2021/01/23 04:25:42;;;;;;;2.30;1.10;;;5.20;70.40;;;;;;2614614;52;20940;-75
2021/01/23 04:28:08;;;;;;;2.47;0.93;;;5.20;70.30;;;;;;2603805;52;21399;-76
2021/01/23 04:30:34;;;;;;;2.50;1.10;;;5.20;70.30;;;;;;2624060;52;22160;-75
2021/01/23 04:33:01;;;;;;;2.37;1.10;;;5.20;70.20;;;;;;2592022;52;20969;-76
2021/01/23 04:35:28;;;;;;;2.47;1.30;;;5.20;70.20;;;;;;2596005;52;20971;-75
2021/01/23 04:37:57;;;;;;;2.78;1.23;;;5.20;70.20;;;;;;2606695;52;21042;-75
2021/01/23 04:40:23;;;;;;;2.87;1.37;;;5.20;70.40;;;;;;2583888;52;20930;-74
2021/01/23 04:42:52;;;;;;;2.90;1.37;;;5.20;70.40;;;;;;2569985;52;20974;-76
2021/01/23 04:45:19;;;;;;;3.35;1.60;;;5.20;70.50;;;;;;2339904;54;21009;-76
2021/01/23 04:47:45;;;;;;;3.78;1.90;;;5.20;70.60;;;;;;2594735;52;21027;-76
2021/01/23 04:50:12;;;;;;;3.35;1.62;;;5.30;70.70;;;;;;2604932;52;21057;-75
2021/01/23 04:52:38;;;;;;;3.87;2.20;;;5.20;70.70;;;;;;2586347;52;20923;-76
2021/01/23 04:55:06;;;;;;;3.75;2.20;;;5.30;70.80;;;;;;2354826;53;21068;-76
2021/01/23 04:57:33;;;;;;;5.20;2.12;;;5.30;70.80;;;;;;2355844;53;20936;-74
2021/01/23 05:00:00;;;;;;;3.70;2.30;;;5.30;70.80;;;;;;2604118;52;20967;-75
2021/01/23 05:02:27;;;;;;;4.68;2.60;;;5.30;70.80;;;;;;2602488;52;20926;-74
2021/01/23 05:04:57;;;;;;;5.25;2.92;;;5.30;70.80;;;;;;2367336;54;21031;-74
2021/01/23 05:07:44;;;;;;;6.45;3.00;;;5.30;70.80;;;;;;2353669;53;20930;-75
2021/01/23 05:10:23;;;;;;;5.37;3.00;;;5.40;70.80;;;;;;2350882;54;20948;-75
2021/01/23 05:12:54;;;;;;;3.95;2.50;;;5.40;70.90;;;;;;2591877;52;21425;-75
2021/01/23 05:15:28;;;;;;;5.07;3.10;;;5.30;70.80;;;;;;2579348;52;20979;-74
2021/01/23 05:18:07;;;;;;;5.40;3.10;;;5.40;70.90;;;;;;2589438;52;21016;-74
2021/01/23 05:22:25;;;;;;;4.68;2.85;;;5.40;70.90;;;;;;2375178;53;20994;-75
2021/01/23 05:24:52;;;;;;;6.00;3.05;;;5.40;70.50;;;;;;2619615;52;20929;-76
2021/01/23 05:27:19;;;;;;;5.97;3.50;;;5.40;70.80;;;;;;2596688;52;20978;-75
2021/01/23 05:29:58;;;;;;;5.80;3.40;;;5.40;70.90;;;;;;2590874;52;21016;-74
2021/01/23 05:32:25;;;;;;;5.93;3.50;;;5.40;71.00;;;;;;2594112;52;21469;-75
2021/01/23 05:34:51;;;;;;;6.25;3.55;;;5.40;71.10;;;;;;2607150;52;21526;-73
2021/01/23 05:37:30;;;;;;;6.32;3.87;;;5.40;71.00;;;;;;2591405;52;20956;-74
2021/01/23 05:39:56;;;;;;;7.25;3.55;;;5.50;71.10;;;;;;2373013;53;20938;-75
2021/01/23 05:42:23;;;;;;;6.15;3.42;;;5.50;71.00;;;;;;2373965;54;20973;-75
2021/01/23 05:45:09;;;;;;;7.70;3.90;;;5.50;71.10;;;;;;2594376;52;21079;-74
2021/01/23 05:47:36;;;;;;;6.07;3.45;;;5.50;71.00;;;;;;2345932;53;21097;-74
2021/01/23 05:50:04;;;;;;;5.78;3.40;;;5.50;71.00;;;;;;2591628;52;21020;-75
2021/01/23 05:52:31;;;;;;;6.75;4.37;;;5.50;70.90;;;;;;2607419;52;21068;-75
2021/01/23 05:55:16;;;;;;;7.30;4.37;;;5.50;71.00;;;;;;2607576;52;21013;-74
2021/01/23 05:57:42;;;;;;;8.75;4.30;;;5.50;70.80;;;;;;2589886;53;21038;-74
2021/01/23 06:00:09;;;;;;;7.20;4.30;;;5.50;71.00;;;;;;2600787;52;21014;-75
2021/01/23 06:02:36;;;;;;;6.97;4.18;;;5.50;71.10;;;;;;2371460;54;20902;-75
2021/01/23 06:05:03;;;;;;;7.82;3.90;;;5.50;71.20;;;;;;2623832;52;20989;-74
2021/01/23 06:08:40;;;;;;;7.75;3.72;;;5.50;71.20;;;;;;2371521;54;20922;-74
2021/01/23 06:12:58;;;;;;;7.10;4.05;;;5.50;71.00;;;;;;2623877;52;20894;-74
2021/01/23 06:15:39;;;;;;;7.00;3.58;;;5.60;70.90;;;;;;2587603;52;20947;-74
2021/01/23 06:18:11;;;;;;;6.65;3.33;;;5.60;71.30;;;;;;2350523;53;21004;-74
2021/01/23 06:20:57;;;;;;;8.02;3.95;;;5.60;71.40;;;;;;2621772;52;20921;-75
2021/01/23 06:23:47;;;;;;;7.00;4.22;;;5.60;71.50;;;;;;2599140;52;21921;-74
2021/01/23 06:26:14;;;;;;;8.95;4.40;;;5.60;71.50;;;;;;2370491;54;21391;-74
2021/01/23 06:28:49;;;;;;;14.73;7.75;;;5.60;71.60;;;;;;2623693;52;20957;-73
2021/01/23 06:31:37;;;;;;;15.90;7.70;;;5.60;71.60;;;;;;2605838;52;20943;-74
2021/01/23 06:34:25;;;;;;;8.80;5.25;;;5.60;71.50;;;;;;2588000;52;20945;-74
2021/01/23 06:37:25;;;;;;;8.85;5.10;;;5.60;71.50;;;;;;2566731;53;20954;-74
2021/01/23 06:40:14;;;;;;;7.57;4.87;;;5.60;71.50;;;;;;2332422;53;1882545;-73
2021/01/23 06:42:53;;;;;;;6.85;4.18;;;5.70;71.50;;;;;;2350761;53;20975;-74
2021/01/23 06:45:33;;;;;;;6.82;3.53;;;5.70;71.60;;;;;;2593059;52;21432;-74
2021/01/23 06:47:59;;;;;;;6.82;3.75;;;5.70;71.60;;;;;;2354542;53;20978;-73
2021/01/23 06:50:42;;;;;;;6.80;4.05;;;5.70;71.60;;;;;;2581098;52;20930;-74
2021/01/23 06:53:29;;;;;;;6.55;3.97;;;5.70;71.60;;;;;;2361697;54;21067;-74
2021/01/23 06:55:56;;;;;;;7.65;4.20;;;5.70;71.40;;;;;;2604319;52;20975;-74
2021/01/23 06:58:26;;;;;;;6.72;3.90;;;5.70;71.60;;;;;;2599081;52;20977;-73
2021/01/23 07:00:59;;;;;;;7.57;4.70;;;5.70;71.70;;;;;;2612535;52;20947;-72
2021/01/23 07:03:41;;;;;;;8.68;4.65;;;5.80;71.80;;;;;;2597350;52;20971;-73
2021/01/23 07:06:07;;;;;;;10.33;4.23;;;5.80;71.70;;;;;;2599900;52;20921;-73
2021/01/23 07:08:36;;;;;;;8.95;3.90;;;5.80;71.80;;;;;;2371293;54;21084;-73
2021/01/23 07:11:17;;;;;;;9.45;3.72;;;5.80;72.00;;;;;;2595215;52;20961;-73
2021/01/23 07:13:57;;;;;;;6.65;3.67;;;5.80;72.00;;;;;;2370584;53;20930;-73
2021/01/23 07:16:24;;;;;;;9.60;3.92;;;5.80;72.00;;;;;;2371437;54;20926;-73
2021/01/23 07:18:57;;;;;;;8.65;4.60;;;5.90;72.20;;;;;;2611866;52;21485;-73
2021/01/23 07:21:24;;;;;;;7.78;3.95;;;5.90;72.00;;;;;;2591151;52;21498;-74
2021/01/23 07:23:55;;;;;;;6.50;3.60;;;5.90;72.00;;;;;;2605733;52;20976;-74
2021/01/23 07:26:22;;;;;;;8.30;3.62;;;5.90;72.00;;;;;;2595003;52;20991;-73
2021/01/23 07:28:57;;;;;;;5.87;3.10;;;5.90;72.00;;;;;;2360603;54;20988;-73
2021/01/23 07:31:28;;;;;;;7.95;3.45;;;5.90;71.90;;;;;;2598465;52;20966;-73
2021/01/23 07:33:55;;;;;;;7.80;3.80;;;5.90;72.00;;;;;;2369930;54;21905;-73
2021/01/23 07:36:31;;;;;;;6.82;3.45;;;6.00;72.10;;;;;;2624120;52;20990;-74
2021/01/23 07:38:58;;;;;;;6.57;3.72;;;6.00;72.00;;;;;;2623951;52;21742;-73
2021/01/23 07:41:28;;;;;;;7.45;2.95;;;6.00;72.00;;;;;;2361037;54;21039;-73
2021/01/23 07:43:57;;;;;;;6.15;3.40;;;6.00;72.00;;;;;;2596527;52;21024;-73
2021/01/23 07:46:23;;;;;;;8.23;3.67;;;6.00;72.10;;;;;;2320485;53;21596;-73
2021/01/23 07:48:49;;;;;;;8.98;3.60;;;6.00;72.10;;;;;;2338384;53;20959;-73
2021/01/23 07:51:49;;;;;;;10.98;5.40;;;6.00;72.10;;;;;;2582140;53;20978;-73
2021/01/23 07:54:15;;;;;;;12.00;5.55;;;6.10;71.90;;;;;;2597697;52;21019;-73
2021/01/23 07:56:54;;;;;;;11.40;4.43;;;6.10;72.10;;;;;;2583235;53;20964;-72
2021/01/23 07:59:21;;;;;;;9.43;4.60;;;6.10;72.10;;;;;;2594958;52;20976;-74
2021/01/23 08:01:47;;;;;;;11.38;4.93;;;6.10;72.10;;;;;;2354817;53;22369;-73
2021/01/23 08:04:32;;;;;;;8.93;3.80;;;6.10;72.10;;;;;;2588107;52;21091;-73
2021/01/23 08:07:26;;;;;;;5.97;3.10;;;6.20;72.10;;;;;;2572840;52;20930;-73
2021/01/23 08:10:38;;;;;;;5.85;2.95;;;6.20;72.00;;;;;;2598657;52;20959;-73
2021/01/23 08:13:06;;;;;;;5.97;3.03;;;6.30;71.90;;;;;;2618773;52;20950;-73
2021/01/23 08:15:33;;;;;;;4.90;2.50;;;6.30;72.20;;;;;;2348867;54;20944;-73
2021/01/23 08:18:00;;;;;;;5.53;2.37;;;6.30;72.20;;;;;;2338198;54;20926;-72
2021/01/23 08:20:36;;;;;;;6.00;2.45;;;6.30;72.20;;;;;;2586902;52;21012;-73
2021/01/23 08:23:10;;;;;;;9.38;3.50;;;6.30;72.10;;;;;;2369335;53;20919;-72
2021/01/23 08:25:46;;;;;;;17.55;4.90;;;6.30;72.20;;;;;;2582955;53;21009;-72
2021/01/23 08:28:13;;;;;;;22.70;5.60;;;6.40;72.20;;;;;;2321570;54;21052;-72
2021/01/23 08:30:40;;;;;;;21.92;4.75;;;6.40;72.20;;;;;;2558393;53;21055;-72
2021/01/23 08:33:07;;;;;;;12.75;4.10;;;6.40;72.20;;;;;;2338974;53;20964;-72
2021/01/23 08:35:38;;;;;;;11.45;4.22;;;6.40;72.30;;;;;;2584317;53;21020;-71
2021/01/23 08:38:09;;;;;;;12.40;3.62;;;6.50;72.40;;;;;;2585595;53;20959;-72
2021/01/23 08:40:35;;;;;;;23.17;5.72;;;6.50;72.40;;;;;;2346760;53;20986;-72
2021/01/23 08:43:03;;;;;;;30.00;7.40;;;6.50;72.30;;;;;;2335785;53;20939;-72
2021/01/23 08:45:29;;;;;;;22.05;6.12;;;6.60;72.40;;;;;;2337909;53;21476;-71
2021/01/23 08:47:56;;;;;;;9.60;3.83;;;6.60;72.50;;;;;;2565611;53;20913;-72
2021/01/23 08:50:23;;;;;;;6.93;2.90;;;6.60;72.70;;;;;;2553378;52;21025;-71
2021/01/23 08:52:49;;;;;;;5.10;2.15;;;6.70;72.90;;;;;;2551371;53;20990;-72
2021/01/23 08:55:16;;;;;;;5.37;2.20;;;6.70;72.90;;;;;;2335748;53;21045;-72
2021/01/23 08:57:43;;;;;;;4.10;2.05;;;6.80;73.10;;;;;;2570270;52;21568;-72
2021/01/23 09:00:11;;;;;;;4.10;2.00;;;6.80;73.10;;;;;;2567363;53;21010;-71
2021/01/23 09:02:38;;;;;;;3.67;1.85;;;6.80;73.10;;;;;;2556299;53;21006;-72
2021/01/23 09:05:06;;;;;;;5.62;3.00;;;6.90;73.20;;;;;;2538609;53;21013;-72
2021/01/23 09:07:34;;;;;;;8.52;3.97;;;6.90;73.30;;;;;;2325766;53;20951;-72
2021/01/23 09:10:01;;;;;;;7.22;3.28;;;7.00;73.40;;;;;;2343239;53;21022;-72
2021/01/23 09:12:28;;;;;;;5.72;3.05;;;7.10;73.40;;;;;;2597116;52;20964;-72
2021/01/23 09:14:54;;;;;;;5.72;3.12;;;7.10;73.20;;;;;;2589852;52;20939;-72
2021/01/23 09:17:21;;;;;;;5.00;3.00;;;7.20;73.40;;;;;;2588292;52;20995;-72
2021/01/23 09:19:47;;;;;;;6.32;2.50;;;7.30;73.50;;;;;;2595135;52;20951;-72
2021/01/23 09:22:13;;;;;;;7.28;3.25;;;7.30;73.40;;;;;;2598757;52;20970;-71
2021/01/23 09:24:41;;;;;;;7.25;3.65;;;7.40;73.30;;;;;;2594910;52;21015;-72
2021/01/23 09:27:07;;;;;;;9.05;5.32;;;7.40;73.20;;;;;;2337516;53;20959;-71
2021/01/23 09:29:39;;;;;;;11.00;5.93;;;7.50;73.10;;;;;;2565865;52;21527;-71
2021/01/23 09:32:07;;;;;;;7.97;4.60;;;7.50;72.90;;;;;;2602969;52;20946;-70
2021/01/23 09:34:34;;;;;;;5.95;2.70;;;7.60;73.20;;;;;;2587940;52;20974;-72
2021/01/23 09:37:02;;;;;;;6.72;2.80;;;7.70;73.00;;;;;;2344703;54;20983;-71
2021/01/23 09:39:30;;;;;;;4.25;2.20;;;7.70;72.90;;;;;;2335833;53;20975;-72
2021/01/23 09:41:59;;;;;;;4.47;2.62;;;7.80;73.00;;;;;;2543053;52;20998;-71
2021/01/23 09:44:27;;;;;;;3.67;1.92;;;7.80;73.00;;;;;;2602380;52;20972;-72
2021/01/23 09:46:54;;;;;;;6.95;2.65;;;7.90;73.00;;;;;;2351799;53;20990;-71
2021/01/23 09:49:21;;;;;;;4.60;2.20;;;7.90;73.00;;;;;;2346430;54;21009;-73
2021/01/23 09:51:47;;;;;;;4.78;1.80;;;8.00;73.00;;;;;;2592584;52;21029;-70
2021/01/23 09:54:14;;;;;;;3.33;1.67;;;8.10;73.10;;;;;;2587540;52;20935;-72
2021/01/23 09:56:47;;;;;;;4.05;1.85;;;8.10;73.20;;;;;;2371002;54;21002;-72
2021/01/23 09:59:14;;;;;;;4.55;1.62;;;8.20;73.30;;;;;;2580068;52;20970;-72
2021/01/23 10:01:40;;;;;;;2.28;1.10;;;8.30;73.60;;;;;;2335806;53;20972;-71
2021/01/23 10:04:07;;;;;;;3.30;1.60;;;8.30;73.60;;;;;;2556250;53;20979;-73
2021/01/23 10:06:34;;;;;;;3.62;1.02;;;8.40;73.60;;;;;;2580274;53;20961;-73
2021/01/23 10:09:00;;;;;;;3.87;1.20;;;8.50;73.50;;;;;;2350219;53;22393;-72
2021/01/23 10:11:27;;;;;;;4.22;1.42;;;8.60;73.20;;;;;;2347612;53;21009;-73
2021/01/23 10:13:54;;;;;;;3.70;1.33;;;8.70;73.20;;;;;;2555120;53;21060;-71
2021/01/23 10:16:21;;;;;;;7.18;2.80;;;8.70;73.20;;;;;;2352520;53;20966;-72
2021/01/23 10:18:48;;;;;;;11.32;4.12;;;8.80;73.60;;;;;;2339636;53;22284;-75
2021/01/23 10:21:15;;;;;;;7.40;2.85;;;8.90;74.00;;;;;;2547547;53;20972;-72
2021/01/23 10:23:41;;;;;;;10.38;3.53;;;9.00;74.30;;;;;;2566695;53;21050;-73
2021/01/23 10:26:07;;;;;;;7.57;3.40;;;9.10;74.40;;;;;;2585174;52;21541;-73
2021/01/23 10:28:34;;;;;;;5.03;1.90;;;9.30;74.60;;;;;;2566766;53;20989;-72
2021/01/23 10:31:00;;;;;;;4.10;1.55;;;9.40;75.10;;;;;;2331125;54;21555;-73
2021/01/23 10:33:27;;;;;;;4.70;1.35;;;9.60;75.50;;;;;;2309779;54;21003;-71
2021/01/23 10:35:53;;;;;;;4.00;1.27;;;9.70;75.30;;;;;;2605772;52;20947;-72
2021/01/23 10:38:20;;;;;;;4.43;1.30;;;9.90;75.40;;;;;;2357183;54;21003;-72
2021/01/23 10:40:47;;;;;;;4.57;1.00;;;10.00;73.40;;;;;;2351071;54;20974;-71
2021/01/23 10:43:13;;;;;;;3.37;1.10;;;10.20;72.80;;;;;;2573249;52;20942;-73
2021/01/23 10:45:40;;;;;;;2.97;1.02;;;10.30;72.20;;;;;;2579051;52;21002;-72
2021/01/23 10:48:08;;;;;;;3.00;1.12;;;10.40;71.70;;;;;;2577458;52;20954;-71
2021/01/23 10:50:34;;;;;;;2.58;0.80;;;10.40;71.00;;;;;;2587471;52;20987;-71
2021/01/23 10:53:01;;;;;;;4.22;1.05;;;10.50;71.00;;;;;;2581344;52;20946;-73
2021/01/23 10:55:30;;;;;;;3.97;1.17;;;10.50;70.60;;;;;;2589725;52;21037;-72
2021/01/23 10:57:56;;;;;;;3.87;1.30;;;10.50;70.40;;;;;;2549264;52;21201;-72
2021/01/23 11:00:24;;;;;;;3.35;1.20;;;10.60;70.20;;;;;;2342803;53;21043;-74
2021/01/23 11:02:50;;;;;;;5.15;1.52;;;10.60;69.10;;;;;;2556386;53;20999;-73
2021/01/23 11:05:18;;;;;;;9.48;2.62;;;10.50;68.60;;;;;;2547866;53;21821;-71
2021/01/23 11:07:52;;;;;;;7.40;2.08;;;10.50;68.50;;;;;;2323292;54;20976;-73
2021/01/23 11:10:19;;;;;;;9.00;2.80;;;10.50;68.50;;;;;;2583210;52;21345;-73
2021/01/23 11:12:46;;;;;;;9.45;2.75;;;10.40;68.20;;;;;;2579848;52;20924;-72
2021/01/23 11:15:15;;;;;;;11.85;3.30;;;10.30;68.30;;;;;;2582312;52;21026;-71
2021/01/23 11:17:42;;;;;;;9.63;2.37;;;10.30;68.70;;;;;;2587648;52;20923;-73
2021/01/23 11:20:11;;;;;;;5.55;1.90;;;10.20;68.70;;;;;;2589673;52;21221;-72
2021/01/23 11:22:37;;;;;;;5.82;1.50;;;10.20;68.50;;;;;;2600983;52;20984;-72
2021/01/23 11:25:05;;;;;;;2.53;1.10;;;10.20;68.60;;;;;;2587234;52;20965;-72
2021/01/23 11:27:33;;;;;;;1.98;0.80;;;10.10;68.40;;;;;;2585053;52;21004;-73
2021/01/23 11:30:01;;;;;;;2.83;0.95;;;10.10;68.50;;;;;;2592526;52;20993;-72
2021/01/23 11:32:28;;;;;;;3.55;1.10;;;10.10;68.60;;;;;;2580894;52;21118;-72
2021/01/23 11:34:55;;;;;;;2.47;0.88;;;10.00;68.40;;;;;;2574667;52;21036;-72
2021/01/23 11:37:21;;;;;;;5.25;0.80;;;10.00;68.50;;;;;;2540561;53;21451;-72
2021/01/23 11:39:50;;;;;;;1.85;0.73;;;10.00;68.90;;;;;;2566794;53;21608;-72
2021/01/23 11:42:17;;;;;;;2.37;1.00;;;10.00;69.20;;;;;;2332962;54;21001;-72
2021/01/23 11:44:45;;;;;;;2.15;0.77;;;10.00;69.40;;;;;;2579367;52;21025;-71
2021/01/23 11:47:11;;;;;;;2.42;0.90;;;10.00;69.40;;;;;;2339481;53;21397;-71
2021/01/23 11:49:38;;;;;;;1.92;0.70;;;10.00;69.60;;;;;;2549489;53;22525;-71
2021/01/23 11:52:04;;;;;;;3.30;1.12;;;10.10;69.80;;;;;;2333167;53;20971;-71
2021/01/23 11:54:32;;;;;;;4.55;1.12;;;10.00;69.30;;;;;;2581998;53;21011;-71
2021/01/23 11:56:58;;;;;;;1.65;0.65;;;10.10;69.40;;;;;;2337320;53;21621;-71
2021/01/23 11:59:25;;;;;;;4.30;0.90;;;10.10;69.70;;;;;;2587498;52;21495;-72
2021/01/23 12:01:51;;;;;;;3.97;0.90;;;10.20;69.80;;;;;;2591086;52;21560;-71
2021/01/23 12:04:19;;;;;;;2.95;1.00;;;10.20;69.20;;;;;;2566594;53;21514;-71
2021/01/23 12:06:46;;;;;;;2.05;0.73;;;10.20;69.30;;;;;;2366760;54;20985;-71
2021/01/23 12:09:13;;;;;;;1.87;0.80;;;10.20;69.20;;;;;;2593535;52;20950;-71
2021/01/23 12:11:39;;;;;;;3.58;0.62;;;10.30;69.10;;;;;;2581274;52;20999;-71
2021/01/23 12:14:06;;;;;;;2.35;1.00;;;10.30;68.70;;;;;;2610430;52;20909;-71
2021/01/23 12:16:32;;;;;;;4.80;2.10;;;10.30;67.90;;;;;;2616607;52;20993;-73
2021/01/23 12:18:59;;;;;;;5.28;1.50;;;10.30;68.10;;;;;;2583480;52;20945;-73
2021/01/23 12:21:27;;;;;;;2.30;1.02;;;10.30;68.10;;;;;;2612650;52;21093;-72
2021/01/23 12:23:54;;;;;;;2.08;0.90;;;10.30;68.30;;;;;;2348108;54;20950;-73
2021/01/23 12:26:20;;;;;;;5.12;1.87;;;10.40;68.60;;;;;;2355839;53;20970;-72
2021/01/23 12:28:47;;;;;;;2.28;1.02;;;10.50;69.50;;;;;;2579204;52;21005;-71
2021/01/23 12:31:13;;;;;;;2.22;0.90;;;10.60;69.80;;;;;;2600316;52;21411;-71
2021/01/23 12:33:41;;;;;;;3.75;1.00;;;10.60;69.70;;;;;;2524799;53;20928;-71
2021/01/23 12:36:07;;;;;;;1.92;0.65;;;10.70;69.10;;;;;;2352871;53;21006;-70
2021/01/23 12:38:34;;;;;;;3.00;1.00;;;10.80;68.90;;;;;;2590379;52;20987;-71
2021/01/23 12:41:03;;;;;;;1.27;0.68;;;10.80;68.70;;;;;;2363581;53;20977;-70
2021/01/23 12:43:30;;;;;;;1.80;0.70;;;10.80;68.10;;;;;;2589697;52;20984;-70
2021/01/23 12:45:57;;;;;;;1.55;0.60;;;10.80;67.90;;;;;;2576873;53;21588;-71
2021/01/23 12:48:23;;;;;;;1.20;0.50;;;10.70;67.60;;;;;;2554936;53;21066;-71
2021/01/23 12:50:50;;;;;;;2.65;0.90;;;10.70;67.50;;;;;;2587552;52;20907;-71
2021/01/23 12:53:16;;;;;;;2.12;0.65;;;10.60;67.60;;;;;;2567153;52;22571;-70
2021/01/23 12:55:45;;;;;;;3.70;0.70;;;10.60;67.90;;;;;;2564128;53;21516;-70
2021/01/23 12:58:12;;;;;;;2.22;1.05;;;10.60;67.70;;;;;;2589556;52;20917;-69
2021/01/23 13:00:38;;;;;;;2.30;0.98;;;10.60;67.60;;;;;;2336912;54;21024;-70
2021/01/23 13:03:05;;;;;;;2.50;1.10;;;10.50;67.50;;;;;;2301156;54;21010;-70
2021/01/23 13:05:32;;;;;;;2.90;0.90;;;10.50;67.60;;;;;;2562114;53;21005;-70
2021/01/23 13:08:00;;;;;;;2.15;0.82;;;10.40;67.70;;;;;;2578419;52;20981;-70
2021/01/23 13:10:26;;;;;;;2.03;0.68;;;10.40;68.00;;;;;;2581316;52;22280;-70
2021/01/23 13:12:53;;;;;;;2.12;0.80;;;10.40;68.30;;;;;;2331108;53;20984;-70